sensor_id;sensor_type;location;lat;lon;timestamp;P1;durP1;ratioP1;P2;durP2;ratioP2
20348;SDS011;10332;50.208;18.988;2022-10-16T00:01:42;18.27;;;13.27;;
20348;SDS011;10332;50.208;18.988;2022-10-16T00:04:09;18.67;;;13.07;;
20348;SDS011;10332;50.208;18.988;2022-10-16T00:06:37;19.58;;;13.43;;
20348;SDS011;10332;50.208;18.988;2022-10-16T00:09:04;18.02;;;13.02;;
20348;SDS011;10332;50.208;18.988;2022-10-16T00:11:34;20.50;;;13.23;;
20348;SDS011;10332;50.208;18.988;2022-10-16T00:14:05;20.60;;;14.15;;
20348;SDS011;10332;50.208;18.988;2022-10-16T00:16:40;20.13;;;14.10;;
20348;SDS011;10332;50.208;18.988;2022-10-16T00:19:08;25.45;;;16.92;;
20348;SDS011;10332;50.208;18.988;2022-10-16T00:21:38;24.45;;;16.33;;
20348;SDS011;10332;50.208;18.988;2022-10-16T00:24:07;23.77;;;16.15;;
20348;SDS011;10332;50.208;18.988;2022-10-16T00:26:36;23.20;;;16.38;;
20348;SDS011;10332;50.208;18.988;2022-10-16T00:29:05;24.23;;;17.58;;
20348;SDS011;10332;50.208;18.988;2022-10-16T00:31:34;23.98;;;17.05;;
20348;SDS011;10332;50.208;18.988;2022-10-16T00:34:02;24.52;;;16.48;;
20348;SDS011;10332;50.208;18.988;2022-10-16T00:36:30;21.83;;;15.07;;
20348;SDS011;10332;50.208;18.988;2022-10-16T00:38:58;18.45;;;14.05;;
20348;SDS011;10332;50.208;18.988;2022-10-16T00:41:28;20.27;;;13.45;;
20348;SDS011;10332;50.208;18.988;2022-10-16T00:44:00;22.20;;;15.05;;
20348;SDS011;10332;50.208;18.988;2022-10-16T00:47:10;24.80;;;17.38;;
20348;SDS011;10332;50.208;18.988;2022-10-16T00:49:44;22.70;;;17.02;;
20348;SDS011;10332;50.208;18.988;2022-10-16T00:52:14;26.05;;;17.80;;
20348;SDS011;10332;50.208;18.988;2022-10-16T00:54:41;23.42;;;16.75;;
20348;SDS011;10332;50.208;18.988;2022-10-16T00:57:09;23.13;;;17.35;;
20348;SDS011;10332;50.208;18.988;2022-10-16T00:59:40;23.90;;;17.17;;
20348;SDS011;10332;50.208;18.988;2022-10-16T01:02:10;21.38;;;15.52;;
20348;SDS011;10332;50.208;18.988;2022-10-16T01:04:50;29.20;;;17.38;;
20348;SDS011;10332;50.208;18.988;2022-10-16T01:07:27;20.40;;;14.25;;
20348;SDS011;10332;50.208;18.988;2022-10-16T01:10:33;21.65;;;15.02;;
20348;SDS011;10332;50.208;18.988;2022-10-16T01:13:24;18.92;;;13.20;;
20348;SDS011;10332;50.208;18.988;2022-10-16T01:16:09;20.27;;;14.43;;
20348;SDS011;10332;50.208;18.988;2022-10-16T01:18:55;18.55;;;12.70;;
20348;SDS011;10332;50.208;18.988;2022-10-16T01:21:36;16.08;;;12.20;;
20348;SDS011;10332;50.208;18.988;2022-10-16T01:27:12;17.77;;;12.55;;
20348;SDS011;10332;50.208;18.988;2022-10-16T01:32:47;16.63;;;12.57;;
20348;SDS011;10332;50.208;18.988;2022-10-16T01:35:25;20.92;;;12.77;;
20348;SDS011;10332;50.208;18.988;2022-10-16T01:38:00;18.42;;;12.15;;
20348;SDS011;10332;50.208;18.988;2022-10-16T01:40:41;16.70;;;12.73;;
20348;SDS011;10332;50.208;18.988;2022-10-16T01:43:18;18.67;;;13.55;;
20348;SDS011;10332;50.208;18.988;2022-10-16T01:45:52;19.70;;;13.32;;
20348;SDS011;10332;50.208;18.988;2022-10-16T01:48:20;17.27;;;11.90;;
20348;SDS011;10332;50.208;18.988;2022-10-16T01:51:01;16.05;;;12.65;;
20348;SDS011;10332;50.208;18.988;2022-10-16T01:53:35;19.30;;;12.32;;
20348;SDS011;10332;50.208;18.988;2022-10-16T01:56:05;21.02;;;13.27;;
20348;SDS011;10332;50.208;18.988;2022-10-16T01:58:40;19.75;;;12.18;;
20348;SDS011;10332;50.208;18.988;2022-10-16T02:01:16;18.45;;;12.90;;
20348;SDS011;10332;50.208;18.988;2022-10-16T02:03:50;16.88;;;12.60;;
20348;SDS011;10332;50.208;18.988;2022-10-16T02:06:23;18.10;;;12.07;;
20348;SDS011;10332;50.208;18.988;2022-10-16T02:08:51;17.95;;;12.77;;
20348;SDS011;10332;50.208;18.988;2022-10-16T02:11:20;14.93;;;11.77;;
20348;SDS011;10332;50.208;18.988;2022-10-16T02:13:51;15.95;;;13.05;;
20348;SDS011;10332;50.208;18.988;2022-10-16T02:16:35;16.80;;;12.45;;
20348;SDS011;10332;50.208;18.988;2022-10-16T02:19:07;17.92;;;12.75;;
20348;SDS011;10332;50.208;18.988;2022-10-16T02:27:35;17.77;;;12.50;;
20348;SDS011;10332;50.208;18.988;2022-10-16T02:33:09;20.50;;;13.02;;
20348;SDS011;10332;50.208;18.988;2022-10-16T02:35:42;18.77;;;13.68;;
20348;SDS011;10332;50.208;18.988;2022-10-16T02:38:12;18.90;;;13.30;;
20348;SDS011;10332;50.208;18.988;2022-10-16T02:40:43;19.27;;;12.07;;
20348;SDS011;10332;50.208;18.988;2022-10-16T02:43:11;18.30;;;13.07;;
20348;SDS011;10332;50.208;18.988;2022-10-16T02:45:39;18.55;;;12.50;;
20348;SDS011;10332;50.208;18.988;2022-10-16T02:48:07;18.98;;;12.95;;
20348;SDS011;10332;50.208;18.988;2022-10-16T02:50:34;20.08;;;13.23;;
20348;SDS011;10332;50.208;18.988;2022-10-16T02:53:02;15.95;;;12.68;;
20348;SDS011;10332;50.208;18.988;2022-10-16T02:55:29;17.60;;;13.30;;
20348;SDS011;10332;50.208;18.988;2022-10-16T02:57:57;18.08;;;12.95;;
20348;SDS011;10332;50.208;18.988;2022-10-16T03:00:24;17.38;;;13.05;;
20348;SDS011;10332;50.208;18.988;2022-10-16T03:02:51;19.15;;;13.25;;
20348;SDS011;10332;50.208;18.988;2022-10-16T03:05:18;18.27;;;13.50;;
20348;SDS011;10332;50.208;18.988;2022-10-16T03:07:51;19.02;;;13.25;;
20348;SDS011;10332;50.208;18.988;2022-10-16T03:10:19;22.50;;;14.23;;
20348;SDS011;10332;50.208;18.988;2022-10-16T03:12:46;19.83;;;13.80;;
20348;SDS011;10332;50.208;18.988;2022-10-16T03:15:13;19.45;;;13.38;;
20348;SDS011;10332;50.208;18.988;2022-10-16T03:17:41;19.13;;;14.10;;
20348;SDS011;10332;50.208;18.988;2022-10-16T03:20:08;20.08;;;15.27;;
20348;SDS011;10332;50.208;18.988;2022-10-16T03:22:36;20.38;;;14.77;;
20348;SDS011;10332;50.208;18.988;2022-10-16T03:25:03;19.73;;;14.27;;
20348;SDS011;10332;50.208;18.988;2022-10-16T03:27:31;18.35;;;14.65;;
20348;SDS011;10332;50.208;18.988;2022-10-16T03:29:59;22.08;;;15.32;;
20348;SDS011;10332;50.208;18.988;2022-10-16T03:32:26;21.55;;;15.57;;
20348;SDS011;10332;50.208;18.988;2022-10-16T03:34:55;21.17;;;14.63;;
20348;SDS011;10332;50.208;18.988;2022-10-16T03:37:23;20.88;;;14.77;;
20348;SDS011;10332;50.208;18.988;2022-10-16T03:39:51;18.83;;;13.65;;
20348;SDS011;10332;50.208;18.988;2022-10-16T03:42:19;18.67;;;13.70;;
20348;SDS011;10332;50.208;18.988;2022-10-16T03:44:46;21.50;;;15.18;;
20348;SDS011;10332;50.208;18.988;2022-10-16T03:47:13;18.52;;;13.48;;
20348;SDS011;10332;50.208;18.988;2022-10-16T03:49:40;17.95;;;13.32;;
20348;SDS011;10332;50.208;18.988;2022-10-16T03:52:08;20.35;;;13.80;;
20348;SDS011;10332;50.208;18.988;2022-10-16T03:54:35;20.85;;;13.55;;
20348;SDS011;10332;50.208;18.988;2022-10-16T03:57:02;19.00;;;13.43;;
20348;SDS011;10332;50.208;18.988;2022-10-16T03:59:29;16.48;;;12.60;;
20348;SDS011;10332;50.208;18.988;2022-10-16T04:01:57;19.00;;;12.82;;
20348;SDS011;10332;50.208;18.988;2022-10-16T04:04:24;16.50;;;12.30;;
20348;SDS011;10332;50.208;18.988;2022-10-16T04:06:52;17.58;;;13.25;;
20348;SDS011;10332;50.208;18.988;2022-10-16T04:09:19;18.98;;;12.55;;
20348;SDS011;10332;50.208;18.988;2022-10-16T04:11:46;15.82;;;11.75;;
20348;SDS011;10332;50.208;18.988;2022-10-16T04:14:13;19.23;;;12.93;;
20348;SDS011;10332;50.208;18.988;2022-10-16T04:16:41;18.10;;;12.95;;
20348;SDS011;10332;50.208;18.988;2022-10-16T04:19:09;20.13;;;14.15;;
20348;SDS011;10332;50.208;18.988;2022-10-16T04:21:37;20.40;;;14.13;;
20348;SDS011;10332;50.208;18.988;2022-10-16T04:24:04;19.70;;;13.30;;
20348;SDS011;10332;50.208;18.988;2022-10-16T04:26:32;19.88;;;12.38;;
20348;SDS011;10332;50.208;18.988;2022-10-16T04:28:59;18.90;;;12.20;;
20348;SDS011;10332;50.208;18.988;2022-10-16T04:31:27;17.60;;;13.07;;
20348;SDS011;10332;50.208;18.988;2022-10-16T04:33:54;16.60;;;11.85;;
20348;SDS011;10332;50.208;18.988;2022-10-16T04:36:22;18.52;;;12.57;;
20348;SDS011;10332;50.208;18.988;2022-10-16T04:38:54;15.25;;;10.90;;
20348;SDS011;10332;50.208;18.988;2022-10-16T04:41:21;17.80;;;11.75;;
20348;SDS011;10332;50.208;18.988;2022-10-16T04:43:49;17.10;;;11.80;;
20348;SDS011;10332;50.208;18.988;2022-10-16T04:46:16;14.90;;;11.65;;
20348;SDS011;10332;50.208;18.988;2022-10-16T04:48:43;17.23;;;11.70;;
20348;SDS011;10332;50.208;18.988;2022-10-16T04:51:11;15.02;;;11.57;;
20348;SDS011;10332;50.208;18.988;2022-10-16T04:53:38;16.15;;;11.45;;
20348;SDS011;10332;50.208;18.988;2022-10-16T04:56:05;17.15;;;12.60;;
20348;SDS011;10332;50.208;18.988;2022-10-16T04:58:32;16.30;;;12.32;;
20348;SDS011;10332;50.208;18.988;2022-10-16T05:01:00;16.48;;;12.10;;
20348;SDS011;10332;50.208;18.988;2022-10-16T05:03:27;18.23;;;13.10;;
20348;SDS011;10332;50.208;18.988;2022-10-16T05:05:57;19.50;;;13.23;;
20348;SDS011;10332;50.208;18.988;2022-10-16T05:08:24;17.25;;;13.05;;
20348;SDS011;10332;50.208;18.988;2022-10-16T05:10:52;16.92;;;12.25;;
20348;SDS011;10332;50.208;18.988;2022-10-16T05:13:19;18.15;;;12.40;;
20348;SDS011;10332;50.208;18.988;2022-10-16T05:15:47;19.23;;;12.52;;
20348;SDS011;10332;50.208;18.988;2022-10-16T05:18:15;15.52;;;11.85;;
20348;SDS011;10332;50.208;18.988;2022-10-16T05:20:43;17.20;;;12.75;;
20348;SDS011;10332;50.208;18.988;2022-10-16T05:23:10;15.18;;;11.60;;
20348;SDS011;10332;50.208;18.988;2022-10-16T05:25:39;16.20;;;12.50;;
20348;SDS011;10332;50.208;18.988;2022-10-16T05:28:06;15.90;;;11.95;;
20348;SDS011;10332;50.208;18.988;2022-10-16T05:30:33;18.50;;;12.98;;
20348;SDS011;10332;50.208;18.988;2022-10-16T05:33:03;17.45;;;12.32;;
20348;SDS011;10332;50.208;18.988;2022-10-16T05:35:30;17.48;;;12.10;;
20348;SDS011;10332;50.208;18.988;2022-10-16T05:37:58;17.60;;;12.30;;
20348;SDS011;10332;50.208;18.988;2022-10-16T05:40:25;16.77;;;12.77;;
20348;SDS011;10332;50.208;18.988;2022-10-16T05:42:54;16.58;;;12.15;;
20348;SDS011;10332;50.208;18.988;2022-10-16T05:45:22;15.55;;;11.95;;
20348;SDS011;10332;50.208;18.988;2022-10-16T05:47:50;16.42;;;11.38;;
20348;SDS011;10332;50.208;18.988;2022-10-16T05:50:17;16.40;;;12.05;;
20348;SDS011;10332;50.208;18.988;2022-10-16T05:52:45;16.00;;;11.30;;
20348;SDS011;10332;50.208;18.988;2022-10-16T05:55:12;15.23;;;11.40;;
20348;SDS011;10332;50.208;18.988;2022-10-16T05:57:39;17.45;;;12.32;;
20348;SDS011;10332;50.208;18.988;2022-10-16T06:00:07;16.63;;;11.73;;
20348;SDS011;10332;50.208;18.988;2022-10-16T06:02:35;15.98;;;12.05;;
20348;SDS011;10332;50.208;18.988;2022-10-16T06:05:02;16.90;;;12.15;;
20348;SDS011;10332;50.208;18.988;2022-10-16T06:07:33;15.60;;;12.07;;
20348;SDS011;10332;50.208;18.988;2022-10-16T06:10:02;14.45;;;11.55;;
20348;SDS011;10332;50.208;18.988;2022-10-16T06:12:31;16.33;;;12.45;;
20348;SDS011;10332;50.208;18.988;2022-10-16T06:14:58;17.98;;;12.38;;
20348;SDS011;10332;50.208;18.988;2022-10-16T06:17:25;18.08;;;12.93;;
20348;SDS011;10332;50.208;18.988;2022-10-16T06:19:53;18.52;;;12.88;;
20348;SDS011;10332;50.208;18.988;2022-10-16T06:22:20;18.45;;;12.77;;
20348;SDS011;10332;50.208;18.988;2022-10-16T06:24:48;15.68;;;11.52;;
20348;SDS011;10332;50.208;18.988;2022-10-16T06:27:16;16.92;;;11.38;;
20348;SDS011;10332;50.208;18.988;2022-10-16T06:29:43;16.10;;;11.70;;
20348;SDS011;10332;50.208;18.988;2022-10-16T06:32:11;17.52;;;12.57;;
20348;SDS011;10332;50.208;18.988;2022-10-16T06:34:39;16.15;;;11.40;;
20348;SDS011;10332;50.208;18.988;2022-10-16T06:37:09;15.32;;;10.88;;
20348;SDS011;10332;50.208;18.988;2022-10-16T06:39:36;15.50;;;11.07;;
20348;SDS011;10332;50.208;18.988;2022-10-16T06:42:04;16.45;;;11.60;;
20348;SDS011;10332;50.208;18.988;2022-10-16T06:44:31;16.80;;;11.93;;
20348;SDS011;10332;50.208;18.988;2022-10-16T06:46:58;16.25;;;11.25;;
20348;SDS011;10332;50.208;18.988;2022-10-16T06:49:26;16.08;;;10.73;;
20348;SDS011;10332;50.208;18.988;2022-10-16T06:51:54;14.38;;;10.43;;
20348;SDS011;10332;50.208;18.988;2022-10-16T06:54:22;17.48;;;10.82;;
20348;SDS011;10332;50.208;18.988;2022-10-16T06:56:50;17.35;;;11.20;;
20348;SDS011;10332;50.208;18.988;2022-10-16T06:59:18;17.50;;;11.70;;
20348;SDS011;10332;50.208;18.988;2022-10-16T07:01:45;13.43;;;10.45;;
20348;SDS011;10332;50.208;18.988;2022-10-16T07:04:13;17.38;;;10.30;;
20348;SDS011;10332;50.208;18.988;2022-10-16T07:06:40;14.32;;;9.32;;
20348;SDS011;10332;50.208;18.988;2022-10-16T07:09:09;14.80;;;10.23;;
20348;SDS011;10332;50.208;18.988;2022-10-16T07:11:38;12.88;;;9.23;;
20348;SDS011;10332;50.208;18.988;2022-10-16T07:14:12;11.93;;;9.25;;
20348;SDS011;10332;50.208;18.988;2022-10-16T07:16:44;10.20;;;8.60;;
20348;SDS011;10332;50.208;18.988;2022-10-16T07:19:12;12.02;;;8.75;;
20348;SDS011;10332;50.208;18.988;2022-10-16T07:21:41;11.38;;;8.30;;
20348;SDS011;10332;50.208;18.988;2022-10-16T07:24:13;11.95;;;9.13;;
20348;SDS011;10332;50.208;18.988;2022-10-16T07:26:43;17.77;;;9.82;;
20348;SDS011;10332;50.208;18.988;2022-10-16T07:29:13;11.95;;;9.25;;
20348;SDS011;10332;50.208;18.988;2022-10-16T07:31:44;11.40;;;8.73;;
20348;SDS011;10332;50.208;18.988;2022-10-16T07:34:13;13.27;;;9.50;;
20348;SDS011;10332;50.208;18.988;2022-10-16T07:36:44;13.00;;;9.95;;
20348;SDS011;10332;50.208;18.988;2022-10-16T07:39:15;11.20;;;8.52;;
20348;SDS011;10332;50.208;18.988;2022-10-16T07:41:42;10.88;;;8.45;;
20348;SDS011;10332;50.208;18.988;2022-10-16T07:44:10;11.45;;;8.38;;
20348;SDS011;10332;50.208;18.988;2022-10-16T07:46:37;10.57;;;7.65;;
20348;SDS011;10332;50.208;18.988;2022-10-16T07:49:05;11.70;;;8.25;;
20348;SDS011;10332;50.208;18.988;2022-10-16T07:51:32;10.02;;;8.18;;
20348;SDS011;10332;50.208;18.988;2022-10-16T07:54:00;10.43;;;7.55;;
20348;SDS011;10332;50.208;18.988;2022-10-16T07:56:27;9.25;;;7.70;;
20348;SDS011;10332;50.208;18.988;2022-10-16T07:58:59;11.55;;;8.38;;
20348;SDS011;10332;50.208;18.988;2022-10-16T08:01:26;8.40;;;6.97;;
20348;SDS011;10332;50.208;18.988;2022-10-16T08:03:54;9.40;;;7.55;;
20348;SDS011;10332;50.208;18.988;2022-10-16T08:06:22;10.43;;;8.18;;
20348;SDS011;10332;50.208;18.988;2022-10-16T08:08:54;10.52;;;8.23;;
20348;SDS011;10332;50.208;18.988;2022-10-16T08:11:22;10.82;;;8.25;;
20348;SDS011;10332;50.208;18.988;2022-10-16T08:13:50;10.10;;;7.55;;
20348;SDS011;10332;50.208;18.988;2022-10-16T08:16:17;9.57;;;7.53;;
20348;SDS011;10332;50.208;18.988;2022-10-16T08:18:44;10.07;;;7.78;;
20348;SDS011;10332;50.208;18.988;2022-10-16T08:21:13;9.98;;;8.13;;
20348;SDS011;10332;50.208;18.988;2022-10-16T08:23:46;9.50;;;7.72;;
20348;SDS011;10332;50.208;18.988;2022-10-16T08:26:22;10.50;;;7.53;;
20348;SDS011;10332;50.208;18.988;2022-10-16T08:28:50;10.18;;;7.45;;
20348;SDS011;10332;50.208;18.988;2022-10-16T08:31:18;9.23;;;7.43;;
20348;SDS011;10332;50.208;18.988;2022-10-16T08:33:47;11.73;;;8.43;;
20348;SDS011;10332;50.208;18.988;2022-10-16T08:36:14;7.97;;;6.43;;
20348;SDS011;10332;50.208;18.988;2022-10-16T08:38:43;9.52;;;7.07;;
20348;SDS011;10332;50.208;18.988;2022-10-16T08:41:26;7.53;;;6.68;;
20348;SDS011;10332;50.208;18.988;2022-10-16T08:49:37;10.95;;;7.70;;
20348;SDS011;10332;50.208;18.988;2022-10-16T08:52:15;8.35;;;6.70;;
20348;SDS011;10332;50.208;18.988;2022-10-16T08:54:43;10.38;;;6.82;;
20348;SDS011;10332;50.208;18.988;2022-10-16T08:57:21;9.02;;;7.05;;
20348;SDS011;10332;50.208;18.988;2022-10-16T08:59:53;7.65;;;6.85;;
20348;SDS011;10332;50.208;18.988;2022-10-16T09:02:37;8.60;;;7.00;;
20348;SDS011;10332;50.208;18.988;2022-10-16T09:25:32;8.32;;;6.75;;
20348;SDS011;10332;50.208;18.988;2022-10-16T09:28:00;6.97;;;5.95;;
20348;SDS011;10332;50.208;18.988;2022-10-16T09:30:28;10.32;;;7.22;;
20348;SDS011;10332;50.208;18.988;2022-10-16T09:32:57;8.95;;;6.55;;
20348;SDS011;10332;50.208;18.988;2022-10-16T09:35:32;7.38;;;5.70;;
20348;SDS011;10332;50.208;18.988;2022-10-16T09:38:29;6.25;;;5.63;;
20348;SDS011;10332;50.208;18.988;2022-10-16T09:41:00;9.05;;;7.93;;
20348;SDS011;10332;50.208;18.988;2022-10-16T09:43:49;10.25;;;7.38;;
20348;SDS011;10332;50.208;18.988;2022-10-16T09:46:30;9.20;;;6.53;;
20348;SDS011;10332;50.208;18.988;2022-10-16T09:49:02;6.25;;;5.45;;
20348;SDS011;10332;50.208;18.988;2022-10-16T09:51:44;6.57;;;5.78;;
20348;SDS011;10332;50.208;18.988;2022-10-16T09:54:16;7.47;;;6.43;;
20348;SDS011;10332;50.208;18.988;2022-10-16T09:56:46;9.57;;;8.00;;
20348;SDS011;10332;50.208;18.988;2022-10-16T09:59:19;9.10;;;6.60;;
20348;SDS011;10332;50.208;18.988;2022-10-16T10:01:54;8.40;;;6.63;;
20348;SDS011;10332;50.208;18.988;2022-10-16T10:04:23;6.80;;;6.05;;
20348;SDS011;10332;50.208;18.988;2022-10-16T10:06:55;8.45;;;7.15;;
20348;SDS011;10332;50.208;18.988;2022-10-16T10:09:25;7.45;;;5.95;;
20348;SDS011;10332;50.208;18.988;2022-10-16T10:12:29;7.75;;;6.25;;
20348;SDS011;10332;50.208;18.988;2022-10-16T10:15:12;9.50;;;7.68;;
20348;SDS011;10332;50.208;18.988;2022-10-16T10:17:57;7.32;;;6.57;;
20348;SDS011;10332;50.208;18.988;2022-10-16T10:20:32;10.75;;;8.52;;
20348;SDS011;10332;50.208;18.988;2022-10-16T10:23:20;8.75;;;7.03;;
20348;SDS011;10332;50.208;18.988;2022-10-16T10:26:01;9.77;;;7.72;;
20348;SDS011;10332;50.208;18.988;2022-10-16T10:31:36;7.07;;;6.38;;
20348;SDS011;10332;50.208;18.988;2022-10-16T10:34:36;11.82;;;8.25;;
20348;SDS011;10332;50.208;18.988;2022-10-16T10:46:03;8.20;;;6.45;;
20348;SDS011;10332;50.208;18.988;2022-10-16T11:00:12;9.57;;;6.70;;
20348;SDS011;10332;50.208;18.988;2022-10-16T11:06:04;7.90;;;6.20;;
20348;SDS011;10332;50.208;18.988;2022-10-16T11:08:55;7.78;;;6.75;;
20348;SDS011;10332;50.208;18.988;2022-10-16T11:11:43;7.15;;;6.45;;
20348;SDS011;10332;50.208;18.988;2022-10-16T11:14:26;7.57;;;6.05;;
20348;SDS011;10332;50.208;18.988;2022-10-16T11:17:17;8.60;;;6.72;;
20348;SDS011;10332;50.208;18.988;2022-10-16T11:23:00;9.90;;;7.20;;
20348;SDS011;10332;50.208;18.988;2022-10-16T11:25:43;9.40;;;7.18;;
20348;SDS011;10332;50.208;18.988;2022-10-16T11:28:14;9.23;;;6.85;;
20348;SDS011;10332;50.208;18.988;2022-10-16T11:30:58;8.00;;;6.50;;
20348;SDS011;10332;50.208;18.988;2022-10-16T11:33:41;10.52;;;7.55;;
20348;SDS011;10332;50.208;18.988;2022-10-16T11:36:39;7.65;;;6.03;;
20348;SDS011;10332;50.208;18.988;2022-10-16T11:39:30;9.57;;;6.45;;
20348;SDS011;10332;50.208;18.988;2022-10-16T11:42:09;8.18;;;6.35;;
20348;SDS011;10332;50.208;18.988;2022-10-16T11:56:51;7.95;;;6.28;;
20348;SDS011;10332;50.208;18.988;2022-10-16T12:03:11;9.73;;;7.63;;
20348;SDS011;10332;50.208;18.988;2022-10-16T12:08:50;6.85;;;6.10;;
20348;SDS011;10332;50.208;18.988;2022-10-16T12:11:22;6.70;;;5.75;;
20348;SDS011;10332;50.208;18.988;2022-10-16T12:16:55;8.80;;;7.38;;
20348;SDS011;10332;50.208;18.988;2022-10-16T12:19:26;8.13;;;5.38;;
20348;SDS011;10332;50.208;18.988;2022-10-16T12:21:57;5.72;;;5.22;;
20348;SDS011;10332;50.208;18.988;2022-10-16T12:24:35;6.25;;;5.63;;
20348;SDS011;10332;50.208;18.988;2022-10-16T12:29:57;5.78;;;5.00;;
20348;SDS011;10332;50.208;18.988;2022-10-16T12:32:35;8.10;;;6.18;;
20348;SDS011;10332;50.208;18.988;2022-10-16T12:35:20;6.72;;;6.13;;
20348;SDS011;10332;50.208;18.988;2022-10-16T12:38:08;7.43;;;6.00;;
20348;SDS011;10332;50.208;18.988;2022-10-16T12:40:44;7.95;;;6.30;;
20348;SDS011;10332;50.208;18.988;2022-10-16T12:43:41;7.97;;;5.60;;
20348;SDS011;10332;50.208;18.988;2022-10-16T12:48:40;7.50;;;6.15;;
20348;SDS011;10332;50.208;18.988;2022-10-16T12:57:18;9.63;;;7.50;;
20348;SDS011;10332;50.208;18.988;2022-10-16T13:27:02;10.13;;;7.22;;
20348;SDS011;10332;50.208;18.988;2022-10-16T13:29:34;10.68;;;8.30;;
20348;SDS011;10332;50.208;18.988;2022-10-16T13:32:06;9.52;;;8.23;;
20348;SDS011;10332;50.208;18.988;2022-10-16T13:34:45;10.60;;;8.43;;
20348;SDS011;10332;50.208;18.988;2022-10-16T13:37:16;10.20;;;8.07;;
20348;SDS011;10332;50.208;18.988;2022-10-16T13:39:47;11.60;;;8.93;;
20348;SDS011;10332;50.208;18.988;2022-10-16T13:42:23;11.32;;;8.70;;
20348;SDS011;10332;50.208;18.988;2022-10-16T13:44:54;10.52;;;8.02;;
20348;SDS011;10332;50.208;18.988;2022-10-16T13:47:26;10.70;;;7.88;;
20348;SDS011;10332;50.208;18.988;2022-10-16T13:50:00;8.90;;;7.28;;
20348;SDS011;10332;50.208;18.988;2022-10-16T13:52:46;11.68;;;7.65;;
20348;SDS011;10332;50.208;18.988;2022-10-16T13:55:14;9.10;;;7.22;;
20348;SDS011;10332;50.208;18.988;2022-10-16T13:57:44;7.18;;;6.22;;
20348;SDS011;10332;50.208;18.988;2022-10-16T14:00:25;8.00;;;6.70;;
20348;SDS011;10332;50.208;18.988;2022-10-16T14:03:01;6.50;;;5.80;;
20348;SDS011;10332;50.208;18.988;2022-10-16T14:05:33;6.80;;;6.10;;
20348;SDS011;10332;50.208;18.988;2022-10-16T14:08:01;6.13;;;5.43;;
20348;SDS011;10332;50.208;18.988;2022-10-16T14:10:32;6.90;;;5.72;;
20348;SDS011;10332;50.208;18.988;2022-10-16T14:15:31;7.70;;;6.03;;
20348;SDS011;10332;50.208;18.988;2022-10-16T14:18:02;6.05;;;5.45;;
20348;SDS011;10332;50.208;18.988;2022-10-16T14:20:32;6.80;;;5.63;;
20348;SDS011;10332;50.208;18.988;2022-10-16T14:23:02;7.22;;;5.80;;
20348;SDS011;10332;50.208;18.988;2022-10-16T14:25:45;6.88;;;6.18;;
20348;SDS011;10332;50.208;18.988;2022-10-16T14:28:18;7.80;;;7.00;;
20348;SDS011;10332;50.208;18.988;2022-10-16T14:30:55;8.02;;;6.45;;
20348;SDS011;10332;50.208;18.988;2022-10-16T14:36:00;6.57;;;5.80;;
20348;SDS011;10332;50.208;18.988;2022-10-16T14:38:41;6.25;;;5.60;;
20348;SDS011;10332;50.208;18.988;2022-10-16T14:41:23;6.88;;;6.18;;
20348;SDS011;10332;50.208;18.988;2022-10-16T14:44:01;6.50;;;5.80;;
20348;SDS011;10332;50.208;18.988;2022-10-16T14:46:36;7.72;;;6.32;;
20348;SDS011;10332;50.208;18.988;2022-10-16T14:51:40;10.38;;;6.93;;
20348;SDS011;10332;50.208;18.988;2022-10-16T14:54:11;7.00;;;6.30;;
20348;SDS011;10332;50.208;18.988;2022-10-16T14:56:43;25.48;;;22.63;;
20348;SDS011;10332;50.208;18.988;2022-10-16T15:04:47;8.15;;;6.30;;
20348;SDS011;10332;50.208;18.988;2022-10-16T15:07:15;10.75;;;6.75;;
20348;SDS011;10332;50.208;18.988;2022-10-16T15:09:43;7.70;;;6.90;;
20348;SDS011;10332;50.208;18.988;2022-10-16T15:12:15;9.05;;;7.18;;
20348;SDS011;10332;50.208;18.988;2022-10-16T15:14:43;11.60;;;9.23;;
20348;SDS011;10332;50.208;18.988;2022-10-16T15:17:11;9.55;;;7.13;;
20348;SDS011;10332;50.208;18.988;2022-10-16T15:19:41;9.07;;;7.75;;
20348;SDS011;10332;50.208;18.988;2022-10-16T15:22:09;7.85;;;7.05;;
20348;SDS011;10332;50.208;18.988;2022-10-16T15:24:38;10.00;;;8.25;;
20348;SDS011;10332;50.208;18.988;2022-10-16T15:27:05;8.75;;;7.25;;
20348;SDS011;10332;50.208;18.988;2022-10-16T15:29:33;14.98;;;10.90;;
20348;SDS011;10332;50.208;18.988;2022-10-16T15:32:00;8.98;;;7.88;;
20348;SDS011;10332;50.208;18.988;2022-10-16T15:34:27;19.77;;;13.23;;
20348;SDS011;10332;50.208;18.988;2022-10-16T15:36:55;15.77;;;11.75;;
20348;SDS011;10332;50.208;18.988;2022-10-16T15:39:24;21.85;;;15.25;;
20348;SDS011;10332;50.208;18.988;2022-10-16T15:41:51;19.75;;;12.70;;
20348;SDS011;10332;50.208;18.988;2022-10-16T15:44:20;19.70;;;13.38;;
20348;SDS011;10332;50.208;18.988;2022-10-16T15:46:55;19.02;;;13.68;;
20348;SDS011;10332;50.208;18.988;2022-10-16T15:49:23;26.65;;;20.17;;
20348;SDS011;10332;50.208;18.988;2022-10-16T15:51:50;19.35;;;13.60;;
20348;SDS011;10332;50.208;18.988;2022-10-16T15:54:19;19.20;;;13.60;;
20348;SDS011;10332;50.208;18.988;2022-10-16T15:56:49;18.17;;;13.43;;
20348;SDS011;10332;50.208;18.988;2022-10-16T15:59:16;17.45;;;12.95;;
20348;SDS011;10332;50.208;18.988;2022-10-16T16:01:43;15.98;;;12.25;;
20348;SDS011;10332;50.208;18.988;2022-10-16T16:04:11;15.68;;;10.73;;
20348;SDS011;10332;50.208;18.988;2022-10-16T16:06:59;14.30;;;10.43;;
20348;SDS011;10332;50.208;18.988;2022-10-16T16:09:30;14.68;;;11.25;;
20348;SDS011;10332;50.208;18.988;2022-10-16T16:11:57;13.23;;;10.55;;
20348;SDS011;10332;50.208;18.988;2022-10-16T16:14:27;13.25;;;10.57;;
20348;SDS011;10332;50.208;18.988;2022-10-16T16:16:55;12.27;;;10.13;;
20348;SDS011;10332;50.208;18.988;2022-10-16T16:19:23;13.55;;;10.35;;
20348;SDS011;10332;50.208;18.988;2022-10-16T16:21:50;19.30;;;13.95;;
20348;SDS011;10332;50.208;18.988;2022-10-16T16:24:18;16.73;;;12.48;;
20348;SDS011;10332;50.208;18.988;2022-10-16T16:26:45;15.65;;;12.13;;
20348;SDS011;10332;50.208;18.988;2022-10-16T16:29:14;14.20;;;10.73;;
20348;SDS011;10332;50.208;18.988;2022-10-16T16:31:42;16.35;;;11.80;;
20348;SDS011;10332;50.208;18.988;2022-10-16T16:34:09;13.48;;;11.25;;
20348;SDS011;10332;50.208;18.988;2022-10-16T16:36:37;15.85;;;11.65;;
20348;SDS011;10332;50.208;18.988;2022-10-16T16:39:05;16.83;;;12.85;;
20348;SDS011;10332;50.208;18.988;2022-10-16T16:41:34;17.67;;;13.23;;
20348;SDS011;10332;50.208;18.988;2022-10-16T16:44:02;21.10;;;14.68;;
20348;SDS011;10332;50.208;18.988;2022-10-16T16:46:34;17.45;;;13.30;;
20348;SDS011;10332;50.208;18.988;2022-10-16T16:49:01;17.40;;;13.48;;
20348;SDS011;10332;50.208;18.988;2022-10-16T16:51:29;18.08;;;14.30;;
20348;SDS011;10332;50.208;18.988;2022-10-16T16:54:01;18.40;;;13.85;;
20348;SDS011;10332;50.208;18.988;2022-10-16T16:56:28;19.48;;;14.13;;
20348;SDS011;10332;50.208;18.988;2022-10-16T16:58:56;19.77;;;15.18;;
20348;SDS011;10332;50.208;18.988;2022-10-16T17:01:24;21.15;;;14.82;;
20348;SDS011;10332;50.208;18.988;2022-10-16T17:03:54;24.45;;;16.45;;
20348;SDS011;10332;50.208;18.988;2022-10-16T17:06:24;19.52;;;15.85;;
20348;SDS011;10332;50.208;18.988;2022-10-16T17:08:56;20.30;;;15.43;;